Decoded Metar for KC62 ( in ) (IATA:) | Meteo·Mobile Aviation Weather
aviador You're here:

KC62 Decoded Metar

in
Report Time2019-04-21 00:35:00
UTC Time2019-04-21 00:48:11
Flight Rules mvfr MVFR
Wind060° at 03 kt
Visibility9999 m
Phenomena:N/A
Clouds:Overcast 014 Hf
Expected CloudBase > 800 ft AGL from Temp-Dew spread
Ceiling1,400 ft
Temp07°C
Dew Point05°C (87% RH)
AAT4.8°C
QNH1009 hPa
Raw Report
KC62 210035Z AUTO 06003KT 10SM OVC014 07/05 A2979 RMK AO2
T00710053=

Extra information for KC62:More info

Social comments